更多用家意見

Home > 用家意見 > 更多用家意見

用家意見
最新用家意見 | 新增意見項目 新增日期 意見數目 瀏覽次數
合拼擴音機:Roksan K2 Integrated Amplifier 2018-04-08 19:15:30 10 28722
接線:AudioQuest Speaker Cable CV-4 2017-12-14 22:52:51 14 36873
前級擴音機:Sound Master No.7 Pre-amp 2017-05-30 08:15:36 32 52806
手提MD機:Sony MZ-R700 2017-05-11 21:07:54 9 12234
揚聲器:PMC FB1 2017-02-13 22:27:30 10 42621
揚聲器:Tannoy Kensington GR 2016-07-20 02:33:43 1 4061
揚聲器:JMlab Chorus 715 2016-06-13 14:00:31 13 47440
錄影機:Sharp DV-NC60W 2016-02-28 16:14:28 0 6851
錄影機:JVC HR-S5500AM 2016-02-28 15:55:45 3 8417
錄影機:JVC HR-S7600AM 2016-02-28 15:44:54 9 14846
CD機:Denon DCD-SA1 SACD/CD Player 2016-02-01 10:38:27 22 66754
揚聲器:Spendor A5 2015-12-17 15:31:53 5 17105
揚聲器:Dynaudio Audience 42 2015-05-08 08:59:04 15 59503
接線:Tara Labs RSC Interconnects AIR 3 2015-05-07 19:50:20 10 29024
揚聲器:Air Tight MSM-1 2015-04-16 03:54:55 1 10471
後級擴音機:COPLAND CTA 505 2015-04-11 17:22:32 3 18808
膽機:Audio Research LS7 Preamplifier 2015-02-03 11:48:43 8 48052
揚聲器:ProAc Tablette Reference 8 2015-01-05 20:34:43 27 96135
合拼擴音機:Creek Classic 5350SE 2014-11-26 13:19:30 5 24354
合拼擴音機:NAD C 355BEE Stereo Integrated Amplifier 2014-11-25 16:21:02 4 18128
合拼擴音機:TAG McLaren Audio 60i 2014-10-06 23:20:19 19 45270
揚聲器:Sonus Faber Concertino 2014-08-21 01:13:37 22 84409
合拼擴音機:Cambridge Audio Azur 640A 2014-06-15 02:30:18 66 138354
後級擴音機:Sound Master No.6 2014-03-27 13:08:03 11 27361
CD機:Accuphase DP-100 & DC-101 (SACD) 2014-03-18 15:01:14 2 27978
揚聲器:Energy Veritas 2.2 2014-01-07 20:04:43 3 22382
接線:QED Speaker Cable Silver Anniversary 2013-11-08 13:07:51 20 54322
接線:SUPRA Audio Cable Ply 3.4 (Speaker Cable) 2013-11-03 01:25:12 11 38121
揚聲器:Sonus Faber Grand Piano Home 2013-08-30 13:26:41 40 105730
揚聲器:JMlab Cobalt 806 2013-07-23 10:37:27 12 51791
DVD影碟機:Pioneer DV-AX10 2013-07-13 13:00:39 11 29120
接線:Van den Hul Interconnects: The Integration Hybrid 2013-06-18 08:59:07 29 70142
前級擴音機:Bow Technologies Warlock 2013-06-08 14:47:10 2 13905
揚聲器:Thiel CS2.3 2013-05-17 00:52:47 5 29144
膽機:Audio Space Houston Mini-2 Integrated Amplifier 2013-04-04 08:50:23 10 34374
藍光影碟播放機:OPPO BDP-95 Blu-ray Disc Player 2013-03-17 16:33:23 24 54025
揚聲器:Dynaudio Audience 72 2013-02-21 07:41:31 4 21576
後級擴音機:GOLDMUND SRA 2013-02-05 03:21:25 2 11724
揚聲器:ATC A7 2013-01-15 23:05:37 3 35084
合拼擴音機:Ayre AX-7 2013-01-03 23:50:39 8 31325
AV 擴音機:Onkyo RDC-7 & RDA-7 2013-01-01 01:38:31 1 14815
AV 擴音機:Krell Home Theater Standard Surround Preamp/Processor 2013-01-01 01:36:09 2 18764
後級擴音機:McIntosh MC2102 2012-11-28 01:12:11 4 14559
揚聲器:JBL N28 2012-10-24 00:36:56 2 15578
前級擴音機:Accuphase C-290V 2012-10-13 18:16:05 1 11486
揚聲器:YAMAHA NS-90 2012-07-04 14:08:58 2 17087
揚聲器:YAMAHA NS-100 2012-06-30 00:19:55 1 17443
AV 擴音機:Yamaha DSP-A1 2012-06-27 19:06:36 5 42214
揚聲器:Wilson Audio Sophia 2012-04-12 09:59:27 1 17736
AV 擴音機:Onkyo TX-NR5009 2012-04-09 08:54:53 4 13414

MS HD Power

review33 on mobile

The Sound Chamber -- 百搭高級音響有限公司

Elephant Holdings Ltd

adhere


Website Screenshots by PagePeeker